Time;durP1;ratioP1;P1;durP2;ratioP2;P2;SDS_P1;SDS_P2;PMS_P1;PMS_P2;Temp;Humidity;BMP_temperature;BMP_pressure;BME280_temperature;BME280_humidity;BME280_pressure;Samples;Min_cycle;Max_cycle;Signal;HPM_P1;HPM_P2
2023/12/19 00:01:56;;;;;;;;;;;;;;;11.71;50.04;101396.78;4930264;28;97912;-65
2023/12/19 00:04:23;;;;;;;;;;;;;;;11.73;50.15;101404.63;4958089;28;116516;-68
2023/12/19 00:06:49;;;;;;;;;;;;;;;11.73;50.25;101399.22;4946093;28;98269;-68
2023/12/19 00:09:15;;;;;;;;;;;;;;;11.73;50.40;101391.94;4928572;28;102650;-66
2023/12/19 00:11:41;;;;;;;;;;;;;;;11.74;50.21;101411.66;4941939;28;98353;-65
2023/12/19 00:14:07;;;;;;;;;;;;;;;11.75;50.16;101411.44;4929147;28;98890;-65
2023/12/19 00:16:33;;;;;;;;;;;;;;;11.76;50.15;101412.25;4909038;28;101004;-65
2023/12/19 00:18:59;;;;;;;;;;;;;;;11.78;50.27;101420.88;4930294;28;97973;-69
2023/12/19 00:21:25;;;;;;;;;;;;;;;11.78;50.22;101429.00;4946423;28;100107;-68
2023/12/19 00:23:51;;;;;;;;;;;;;;;11.79;50.21;101426.06;4923835;28;127817;-65
2023/12/19 00:26:17;;;;;;;;;;;;;;;11.80;50.29;101427.69;4944998;28;98189;-65
2023/12/19 00:28:44;;;;;;;;;;;;;;;11.81;50.08;101420.41;4928517;28;97977;-68
2023/12/19 00:31:19;;;;;;;;;;;;;;;11.82;50.15;101408.50;4928387;28;99827;-65
2023/12/19 00:33:45;;;;;;;;;;;;;;;11.82;50.09;101402.31;4930742;28;98657;-69
2023/12/19 00:36:20;;;;;;;;;;;;;;;11.82;50.10;101410.41;4940835;28;111986;-69
2023/12/19 00:38:46;;;;;;;;;;;;;;;11.82;50.24;101418.50;4926409;28;98481;-65
2023/12/19 00:41:13;;;;;;;;;;;;;;;11.82;50.38;101421.22;4931825;28;98016;-68
2023/12/19 00:43:40;;;;;;;;;;;;;;;11.80;50.22;101405.25;4927373;28;98017;-65
2023/12/19 00:46:06;;;;;;;;;;;;;;;11.79;50.03;101406.34;4947404;28;98530;-65
2023/12/19 00:48:32;;;;;;;;;;;;;;;11.76;50.32;101404.94;4930642;28;98524;-69
2023/12/19 00:50:58;;;;;;;;;;;;;;;11.75;50.35;101411.44;4941651;28;98122;-69
2023/12/19 00:53:24;;;;;;;;;;;;;;;11.74;50.06;101415.19;4931949;28;98428;-65
2023/12/19 00:55:50;;;;;;;;;;;;;;;11.71;50.08;101407.59;4929234;28;129438;-68
2023/12/19 00:58:16;;;;;;;;;;;;;;;11.70;50.27;101405.94;4929681;28;123974;-65
2023/12/19 01:00:42;;;;;;;;;;;;;;;11.68;50.36;101404.59;4905156;28;97967;-65
2023/12/19 01:03:08;;;;;;;;;;;;;;;11.66;50.27;101412.91;4945048;28;98921;-68
2023/12/19 01:05:34;;;;;;;;;;;;;;;11.64;50.16;101416.97;4931918;28;128726;-65
2023/12/19 01:08:01;;;;;;;;;;;;;;;11.63;50.16;101393.69;4960089;28;98269;-69
2023/12/19 01:10:27;;;;;;;;;;;;;;;11.60;50.18;101400.44;4956197;28;98097;-69
2023/12/19 01:12:52;;;;;;;;;;;;;;;11.59;50.25;101408.78;4905733;28;124955;-69
2023/12/19 01:15:19;;;;;;;;;;;;;;;11.59;50.18;101411.47;4931241;28;126695;-69
2023/12/19 01:17:45;;;;;;;;;;;;;;;11.58;50.14;101401.75;4930348;28;97950;-69
2023/12/19 01:20:11;;;;;;;;;;;;;;;11.56;50.33;101388.50;4942066;28;98512;-65
2023/12/19 01:22:37;;;;;;;;;;;;;;;11.56;50.28;101385.81;4964385;28;106143;-68
2023/12/19 01:25:03;;;;;;;;;;;;;;;11.54;50.32;101367.13;4942001;28;112913;-65
2023/12/19 01:27:29;;;;;;;;;;;;;;;11.55;50.21;101367.94;4962541;28;98258;-65
2023/12/19 01:29:55;;;;;;;;;;;;;;;11.53;50.23;101364.69;4936880;28;117078;-69
2023/12/19 01:32:21;;;;;;;;;;;;;;;11.52;50.18;101379.28;4943459;28;128485;-65
2023/12/19 01:34:47;;;;;;;;;;;;;;;11.51;50.32;101381.16;4931744;28;107214;-69
2023/12/19 01:37:13;;;;;;;;;;;;;;;11.50;50.22;101390.31;4904048;28;98316;-65
2023/12/19 01:39:39;;;;;;;;;;;;;;;11.50;50.22;101382.22;4927273;28;97988;-65
2023/12/19 01:42:05;;;;;;;;;;;;;;;11.50;50.08;101370.59;4945962;28;99104;-65
2023/12/19 01:44:31;;;;;;;;;;;;;;;11.48;50.15;101381.66;4942843;28;114564;-65
2023/12/19 01:46:57;;;;;;;;;;;;;;;11.48;50.21;101387.06;4939354;28;98490;-65
2023/12/19 01:49:23;;;;;;;;;;;;;;;11.48;50.21;101380.84;4939597;28;99464;-65
2023/12/19 01:51:49;;;;;;;;;;;;;;;11.48;50.15;101381.66;4940902;28;98250;-65
2023/12/19 01:54:16;;;;;;;;;;;;;;;11.47;50.20;101373.78;4941020;28;98616;-66
2023/12/19 01:56:43;;;;;;;;;;;;;;;11.48;50.11;101383.56;4944971;28;102290;-65
2023/12/19 01:59:09;;;;;;;;;;;;;;;11.46;50.24;101380.28;4925302;28;98661;-66
2023/12/19 02:01:35;;;;;;;;;;;;;;;11.45;50.14;101378.66;4928560;28;99646;-69
2023/12/19 02:04:02;;;;;;;;;;;;;;;11.44;50.20;101396.72;4920495;28;98279;-65
2023/12/19 02:06:28;;;;;;;;;;;;;;;11.44;50.10;101398.63;4956861;28;98173;-69
2023/12/19 02:08:53;;;;;;;;;;;;;;;11.44;50.15;101404.00;4957036;28;98001;-69
2023/12/19 02:11:20;;;;;;;;;;;;;;;11.42;49.95;101411.53;4924978;28;128081;-65
2023/12/19 02:13:46;;;;;;;;;;;;;;;11.40;50.08;101408.28;4926473;28;98118;-65
2023/12/19 02:16:12;;;;;;;;;;;;;;;11.40;50.29;101398.31;4944743;28;123482;-69
2023/12/19 02:18:37;;;;;;;;;;;;;;;11.39;50.17;101404.75;4922449;28;98321;-65
2023/12/19 02:21:04;;;;;;;;;;;;;;;11.39;49.94;101393.13;4930372;28;99500;-65
2023/12/19 02:23:30;;;;;;;;;;;;;;;11.38;50.15;101383.41;4911863;28;99335;-65
2023/12/19 02:25:56;;;;;;;;;;;;;;;11.37;50.20;101389.88;4943838;28;115673;-69
2023/12/19 02:28:23;;;;;;;;;;;;;;;11.38;50.17;101389.63;4911431;28;98265;-65
2023/12/19 02:30:49;;;;;;;;;;;;;;;11.38;50.12;101394.22;4910006;28;98271;-66
2023/12/19 02:33:15;;;;;;;;;;;;;;;11.38;50.27;101400.41;4916900;28;101223;-68
2023/12/19 02:35:41;;;;;;;;;;;;;;;11.37;50.17;101404.19;4910397;28;98839;-65
2023/12/19 02:38:07;;;;;;;;;;;;;;;11.39;50.10;101396.66;4958342;28;98418;-69
2023/12/19 02:40:33;;;;;;;;;;;;;;;11.38;50.26;101397.72;4927209;28;114145;-69
2023/12/19 02:43:01;;;;;;;;;;;;;;;11.40;50.18;101392.09;4942565;28;123765;-66
2023/12/19 02:45:31;;;;;;;;;;;;;;;11.39;50.05;101382.34;4926194;28;98172;-65
2023/12/19 02:47:57;;;;;;;;;;;;;;;11.40;50.06;101384.81;4940634;28;98240;-66
2023/12/19 02:50:23;;;;;;;;;;;;;;;11.41;50.24;101372.94;4927538;28;99913;-65
2023/12/19 02:52:49;;;;;;;;;;;;;;;11.43;50.23;101345.66;4914860;28;112425;-69
2023/12/19 02:55:15;;;;;;;;;;;;;;;11.43;50.09;101321.38;4925823;27;130111;-65
2023/12/19 02:57:41;;;;;;;;;;;;;;;11.44;50.22;101304.94;4940709;28;98020;-69
2023/12/19 03:00:07;;;;;;;;;;;;;;;11.44;50.26;101307.63;4914383;28;100065;-69
2023/12/19 03:02:33;;;;;;;;;;;;;;;11.45;50.15;101324.66;4957699;28;98120;-66
2023/12/19 03:04:59;;;;;;;;;;;;;;;11.46;50.07;101337.06;4943279;28;98015;-66
2023/12/19 03:07:25;;;;;;;;;;;;;;;11.46;50.15;101337.88;4927520;28;98195;-69
2023/12/19 03:09:51;;;;;;;;;;;;;;;11.47;50.21;101339.50;4929516;28;99465;-65
2023/12/19 03:12:17;;;;;;;;;;;;;;;11.49;50.01;101344.69;4924783;28;130333;-69
2023/12/19 03:14:43;;;;;;;;;;;;;;;11.49;49.80;101342.78;4934528;28;99664;-65
2023/12/19 03:17:09;;;;;;;;;;;;;;;11.51;50.02;101343.38;4936689;28;114922;-69
2023/12/19 03:19:36;;;;;;;;;;;;;;;11.52;50.13;101336.88;4935062;28;98034;-66
2023/12/19 03:22:03;;;;;;;;;;;;;;;11.53;50.19;101335.00;4932660;28;98152;-66
2023/12/19 03:24:29;;;;;;;;;;;;;;;11.53;50.17;101335.81;4948979;28;97920;-69
2023/12/19 03:26:55;;;;;;;;;;;;;;;11.56;50.22;101321.00;4943023;28;98087;-69
2023/12/19 03:29:20;;;;;;;;;;;;;;;11.56;50.07;101339.91;4939685;28;98475;-65
2023/12/19 03:31:46;;;;;;;;;;;;;;;11.57;50.04;101327.22;4927662;28;122425;-69
2023/12/19 03:34:12;;;;;;;;;;;;;;;11.57;50.05;101338.00;4925302;28;98050;-69
2023/12/19 03:36:38;;;;;;;;;;;;;;;11.58;50.14;101329.66;4929015;28;98866;-65
2023/12/19 03:39:05;;;;;;;;;;;;;;;11.59;50.08;101295.34;4940414;28;117377;-69
2023/12/19 03:41:31;;;;;;;;;;;;;;;11.60;50.06;101310.50;4926254;28;100263;-66
2023/12/19 03:43:57;;;;;;;;;;;;;;;11.60;50.25;101315.91;4905542;28;98975;-69
2023/12/19 03:46:23;;;;;;;;;;;;;;;11.59;50.13;101323.16;4940191;28;123214;-69
2023/12/19 03:48:49;;;;;;;;;;;;;;;11.60;50.05;101318.63;4931309;28;98873;-69
2023/12/19 03:51:15;;;;;;;;;;;;;;;11.60;50.14;101307.81;4927292;28;127902;-69
2023/12/19 03:53:41;;;;;;;;;;;;;;;11.61;50.15;101322.94;4927095;28;119168;-65
2023/12/19 03:56:07;;;;;;;;;;;;;;;11.60;50.03;101314.03;4943357;28;112450;-65
2023/12/19 03:58:33;;;;;;;;;;;;;;;11.59;50.14;101306.97;4926317;28;99302;-65
2023/12/19 04:01:02;;;;;;;;;;;;;;;11.58;50.06;101299.13;4925635;28;103211;-69
2023/12/19 04:03:28;;;;;;;;;;;;;;;11.55;50.07;101279.69;4931747;28;98001;-69
2023/12/19 04:05:54;;;;;;;;;;;;;;;11.54;50.02;101271.81;4924018;28;112836;-66
2023/12/19 04:08:20;;;;;;;;;;;;;;;11.53;50.21;101276.41;4927508;28;99809;-66
2023/12/19 04:10:46;;;;;;;;;;;;;;;11.52;49.95;101282.88;4906021;28;98667;-65
2023/12/19 04:13:12;;;;;;;;;;;;;;;11.51;50.13;101278.56;4922303;28;98910;-65
2023/12/19 04:15:38;;;;;;;;;;;;;;;11.50;49.98;101292.31;4930496;28;98366;-69
2023/12/19 04:18:05;;;;;;;;;;;;;;;11.49;50.29;101298.78;4923292;28;99983;-68
2023/12/19 04:20:31;;;;;;;;;;;;;;;11.49;49.93;101296.06;4941251;28;107278;-65
2023/12/19 04:22:57;;;;;;;;;;;;;;;11.48;50.07;101299.84;4930294;28;99774;-65
2023/12/19 04:25:23;;;;;;;;;;;;;;;11.47;50.19;101304.41;4941653;28;98270;-68
2023/12/19 04:27:49;;;;;;;;;;;;;;;11.46;50.02;101296.56;4905816;28;98384;-68
2023/12/19 04:30:15;;;;;;;;;;;;;;;11.46;50.27;101304.69;4930923;28;101583;-68
2023/12/19 04:32:41;;;;;;;;;;;;;;;11.45;50.04;101292.25;4925604;28;126874;-65
2023/12/19 04:35:08;;;;;;;;;;;;;;;11.46;50.07;101291.19;4927110;28;98231;-68
2023/12/19 04:37:34;;;;;;;;;;;;;;;11.44;50.13;101298.72;4942872;28;98708;-65
2023/12/19 04:40:02;;;;;;;;;;;;;;;11.44;50.20;101302.25;4953282;28;99225;-68
2023/12/19 04:42:28;;;;;;;;;;;;;;;11.44;50.17;101293.34;4927572;28;98221;-68
2023/12/19 04:44:55;;;;;;;;;;;;;;;11.43;50.07;101297.88;4948196;28;99231;-66
2023/12/19 04:47:21;;;;;;;;;;;;;;;11.42;49.94;101309.75;4946356;28;98561;-68
2023/12/19 04:49:47;;;;;;;;;;;;;;;11.42;50.01;101307.06;4929363;28;114983;-66
2023/12/19 04:52:13;;;;;;;;;;;;;;;11.43;49.98;101305.19;4945538;28;127148;-69
2023/12/19 04:54:39;;;;;;;;;;;;;;;11.43;49.94;101305.97;4927908;28;99383;-69
2023/12/19 04:57:05;;;;;;;;;;;;;;;11.43;50.14;101297.06;4942382;28;105900;-69
2023/12/19 04:59:32;;;;;;;;;;;;;;;11.44;49.96;101296.84;4927432;28;98502;-69
2023/12/19 05:01:58;;;;;;;;;;;;;;;11.45;50.02;101293.06;4925207;28;98034;-66
2023/12/19 05:04:24;;;;;;;;;;;;;;;11.46;49.90;101283.06;4931508;28;99495;-69
2023/12/19 05:06:51;;;;;;;;;;;;;;;11.48;50.07;101283.66;4907843;28;98056;-69
2023/12/19 05:09:18;;;;;;;;;;;;;;;11.48;50.03;101287.16;4931148;28;98229;-69
2023/12/19 05:11:44;;;;;;;;;;;;;;;11.49;50.16;101278.00;4956763;28;99286;-65
2023/12/19 05:14:11;;;;;;;;;;;;;;;11.49;50.01;101275.28;4944166;28;98329;-65
2023/12/19 05:16:37;;;;;;;;;;;;;;;11.51;50.08;101270.47;4911370;28;98020;-65
2023/12/19 05:19:04;;;;;;;;;;;;;;;11.52;49.93;101271.28;4911029;28;107483;-65
2023/12/19 05:21:37;;;;;;;;;;;;;;;11.53;50.03;101268.31;4912172;28;99173;-68
2023/12/19 05:24:03;;;;;;;;;;;;;;;11.54;50.01;101278.03;4936958;28;99679;-68
2023/12/19 05:26:29;;;;;;;;;;;;;;;11.55;49.92;101274.28;4956954;28;98687;-68
2023/12/19 05:28:55;;;;;;;;;;;;;;;11.55;50.08;101271.59;4911078;28;110530;-69
2023/12/19 05:31:22;;;;;;;;;;;;;;;11.58;50.18;101275.66;4926593;28;99388;-68
2023/12/19 05:33:48;;;;;;;;;;;;;;;11.59;49.93;101271.88;4925803;28;98584;-65
2023/12/19 05:36:14;;;;;;;;;;;;;;;11.60;49.80;101272.72;4931067;28;98058;-68
2023/12/19 05:38:40;;;;;;;;;;;;;;;11.61;50.00;101280.53;4896838;28;98264;-65
2023/12/19 05:41:06;;;;;;;;;;;;;;;11.62;49.80;101292.16;4928392;28;98418;-69
2023/12/19 05:43:32;;;;;;;;;;;;;;;11.63;49.99;101291.09;4926945;28;97999;-66
2023/12/19 05:46:02;;;;;;;;;;;;;;;11.63;49.93;101291.94;4922089;28;105436;-65
2023/12/19 05:48:28;;;;;;;;;;;;;;;11.63;50.04;101278.41;4921927;28;98266;-69
2023/12/19 05:50:55;;;;;;;;;;;;;;;11.66;50.04;101274.38;4938529;28;99003;-66
2023/12/19 05:53:21;;;;;;;;;;;;;;;11.66;49.99;101271.69;4905904;28;98672;-69
2023/12/19 05:55:47;;;;;;;;;;;;;;;11.67;50.11;101270.59;4923110;28;99761;-69
2023/12/19 05:58:13;;;;;;;;;;;;;;;11.68;50.02;101274.94;4919518;28;127604;-68
2023/12/19 06:00:40;;;;;;;;;;;;;;;11.68;50.10;101278.47;4907741;28;98501;-69
2023/12/19 06:03:06;;;;;;;;;;;;;;;11.68;49.89;101277.66;4939561;28;98456;-69
2023/12/19 06:05:32;;;;;;;;;;;;;;;11.69;49.91;101268.47;4953072;28;98259;-69
2023/12/19 06:08:00;;;;;;;;;;;;;;;11.70;49.87;101256.59;4884774;28;98543;-69
2023/12/19 06:10:26;;;;;;;;;;;;;;;11.70;49.92;101254.69;4917525;28;98077;-69
2023/12/19 06:12:52;;;;;;;;;;;;;;;11.71;49.93;101250.09;4948224;28;100161;-69
2023/12/19 06:15:19;;;;;;;;;;;;;;;11.72;50.03;101251.75;4928391;28;99826;-69
2023/12/19 06:17:48;;;;;;;;;;;;;;;11.71;49.89;101242.84;4914527;28;101236;-66
2023/12/19 06:20:14;;;;;;;;;;;;;;;11.72;50.08;101241.78;4906818;28;98129;-66
2023/12/19 06:22:43;;;;;;;;;;;;;;;11.73;50.04;101250.69;4944871;28;101484;-70
2023/12/19 06:25:09;;;;;;;;;;;;;;;11.73;50.20;101254.19;4938679;28;98616;-69
2023/12/19 06:27:35;;;;;;;;;;;;;;;11.73;50.07;101248.78;4935116;28;98102;-66
2023/12/19 06:30:02;;;;;;;;;;;;;;;11.74;49.98;101245.00;4919793;28;98100;-66
2023/12/19 06:32:28;;;;;;;;;;;;;;;11.75;50.12;101238.56;4936489;28;98675;-69
2023/12/19 06:34:55;;;;;;;;;;;;;;;11.74;49.99;101239.63;4905667;28;98480;-66
2023/12/19 06:37:21;;;;;;;;;;;;;;;11.75;49.96;101229.63;4935849;28;99007;-66
2023/12/19 06:39:47;;;;;;;;;;;;;;;11.76;49.89;101225.88;4920666;28;98996;-66
2023/12/19 06:42:13;;;;;;;;;;;;;;;11.76;50.14;101226.69;4934353;28;113894;-69
2023/12/19 06:44:40;;;;;;;;;;;;;;;11.75;49.91;101225.06;4936427;28;98686;-66
2023/12/19 06:47:06;;;;;;;;;;;;;;;11.79;49.94;101225.38;4939158;28;98342;-66
2023/12/19 06:49:32;;;;;;;;;;;;;;;11.86;49.93;101225.16;4923571;28;98078;-70
2023/12/19 06:51:58;;;;;;;;;;;;;;;11.93;50.14;101226.56;4927872;28;98326;-66
2023/12/19 06:54:24;;;;;;;;;;;;;;;11.99;49.90;101230.16;4922009;28;122118;-70
2023/12/19 06:56:51;;;;;;;;;;;;;;;12.06;50.15;101230.72;4883202;28;98676;-70
2023/12/19 06:59:17;;;;;;;;;;;;;;;12.09;49.68;101230.22;4924211;28;98757;-70
2023/12/19 07:01:44;;;;;;;;;;;;;;;12.15;50.18;101233.78;4942026;28;120664;-70
2023/12/19 07:04:10;;;;;;;;;;;;;;;12.17;50.07;101231.63;4908518;28;98095;-70
2023/12/19 07:06:36;;;;;;;;;;;;;;;12.20;49.87;101226.50;4909022;28;99619;-70
2023/12/19 07:09:02;;;;;;;;;;;;;;;12.23;50.00;101226.00;4951750;28;98308;-66
2023/12/19 07:11:28;;;;;;;;;;;;;;;12.26;50.25;101233.59;4937713;28;97945;-66
2023/12/19 07:13:54;;;;;;;;;;;;;;;12.29;50.18;101214.13;4937386;28;98347;-66
2023/12/19 07:16:21;;;;;;;;;;;;;;;12.31;49.95;101204.97;4939531;28;129581;-66
2023/12/19 07:18:47;;;;;;;;;;;;;;;12.31;50.09;101202.25;4953873;28;98162;-70
2023/12/19 07:21:21;;;;;;;;;;;;;;;12.32;50.15;101195.78;4926879;28;112764;-70
2023/12/19 07:23:51;;;;;;;;;;;;;;;12.33;50.11;101175.78;4916685;28;98865;-66
2023/12/19 07:26:24;;;;;;;;;;;;;;;12.33;50.01;101170.38;4919829;28;98801;-70
2023/12/19 07:28:50;;;;;;;;;;;;;;;12.33;50.01;101160.34;4924252;28;98881;-69
2023/12/19 07:31:24;;;;;;;;;;;;;;;12.35;49.90;101157.41;4932848;28;98015;-66
2023/12/19 07:34:03;;;;;;;;;;;;;;;12.36;50.25;101153.63;4923384;28;98379;-66
2023/12/19 07:36:30;;;;;;;;;;;;;;;12.36;49.86;101165.25;4937508;28;100180;-69
2023/12/19 07:38:56;;;;;;;;;;;;;;;12.36;49.92;101159.84;4922987;28;98476;-66
2023/12/19 07:41:26;;;;;;;;;;;;;;;12.37;50.10;101164.16;4932044;28;98178;-70
2023/12/19 07:43:55;;;;;;;;;;;;;;;12.36;50.24;101150.91;4922930;28;98405;-66
2023/12/19 07:46:21;;;;;;;;;;;;;;;12.36;50.00;101138.22;4910595;28;103796;-66
2023/12/19 07:48:47;;;;;;;;;;;;;;;12.38;50.04;101137.94;4942191;28;98223;-66
2023/12/19 07:51:17;;;;;;;;;;;;;;;12.39;50.01;101142.28;4901119;28;98804;-70
2023/12/19 07:53:44;;;;;;;;;;;;;;;12.39;50.01;101145.81;4921750;28;101693;-70
2023/12/19 07:56:10;;;;;;;;;;;;;;;12.40;50.13;101142.03;4921062;28;99026;-66
2023/12/19 07:58:36;;;;;;;;;;;;;;;12.41;50.00;101135.53;4893007;28;98845;-66
2023/12/19 08:01:02;;;;;;;;;;;;;;;12.41;50.00;101132.00;4920171;28;98461;-66
2023/12/19 08:03:29;;;;;;;;;;;;;;;12.41;49.83;101122.00;4936087;28;125145;-65
2023/12/19 08:05:56;;;;;;;;;;;;;;;12.40;49.87;101127.69;4919575;28;98701;-66
2023/12/19 08:08:22;;;;;;;;;;;;;;;12.41;49.93;101121.19;4934226;28;98961;-65
2023/12/19 08:10:49;;;;;;;;;;;;;;;12.42;50.02;101117.44;4931103;28;99408;-70
2023/12/19 08:13:15;;;;;;;;;;;;;;;12.43;49.68;101100.13;4901250;28;99935;-69
2023/12/19 08:15:41;;;;;;;;;;;;;;;12.46;49.85;101097.72;4907685;28;99505;-65
2023/12/19 08:18:10;;;;;;;;;;;;;;;12.51;49.90;101102.34;4920073;28;98597;-70
2023/12/19 08:20:36;;;;;;;;;;;;;;;12.55;49.82;101108.03;4922672;28;121996;-66
2023/12/19 08:23:03;;;;;;;;;;;;;;;12.56;49.95;101107.75;4935904;28;98384;-70
2023/12/19 08:25:29;;;;;;;;;;;;;;;12.59;49.95;101114.53;4935131;28;99487;-70
2023/12/19 08:27:55;;;;;;;;;;;;;;;12.60;50.03;101103.44;4920445;28;98435;-65
2023/12/19 08:30:22;;;;;;;;;;;;;;;12.62;49.70;101097.78;4922186;28;99614;-69
2023/12/19 08:32:48;;;;;;;;;;;;;;;12.64;49.83;101096.41;4906617;28;98879;-66
2023/12/19 08:35:14;;;;;;;;;;;;;;;12.67;49.93;101105.91;4913193;28;118063;-70
2023/12/19 08:37:40;;;;;;;;;;;;;;;12.68;49.86;101102.91;4906722;28;111585;-70
2023/12/19 08:40:08;;;;;;;;;;;;;;;12.72;49.76;101111.31;4927821;28;100710;-70
2023/12/19 08:42:34;;;;;;;;;;;;;;;12.76;49.56;101109.69;4881128;28;100658;-69
2023/12/19 08:45:00;;;;;;;;;;;;;;;12.78;49.87;101121.09;4929618;28;106619;-70
2023/12/19 08:47:26;;;;;;;;;;;;;;;12.82;49.96;101127.59;4945933;28;98190;-70
2023/12/19 08:49:57;;;;;;;;;;;;;;;12.87;49.85;101129.50;4917858;28;99888;-67
2023/12/19 08:52:23;;;;;;;;;;;;;;;12.92;49.62;101126.78;4898626;28;100048;-66
2023/12/19 08:54:51;;;;;;;;;;;;;;;12.95;49.80;101128.97;4931435;28;98035;-66
2023/12/19 08:57:17;;;;;;;;;;;;;;;12.97;49.84;101114.09;4899834;28;98585;-70
2023/12/19 08:59:43;;;;;;;;;;;;;;;12.99;49.73;101111.94;4922824;28;118744;-66
2023/12/19 09:02:09;;;;;;;;;;;;;;;13.02;49.42;101108.69;4910377;28;99015;-65
2023/12/19 09:04:35;;;;;;;;;;;;;;;13.05;49.47;101107.34;4930789;28;98776;-66
2023/12/19 09:07:01;;;;;;;;;;;;;;;13.07;49.37;101109.78;4897060;28;99779;-65
2023/12/19 09:09:28;;;;;;;;;;;;;;;13.10;49.50;101114.66;4930930;28;99524;-70
2023/12/19 09:11:54;;;;;;;;;;;;;;;13.12;49.72;101105.19;4904184;28;99069;-69
2023/12/19 09:14:20;;;;;;;;;;;;;;;13.13;49.64;101096.00;4913951;28;98508;-66
2023/12/19 09:16:46;;;;;;;;;;;;;;;13.15;49.36;101095.72;4897521;28;119037;-70
2023/12/19 09:19:14;;;;;;;;;;;;;;;13.18;49.35;101093.28;4927968;28;98298;-65
2023/12/19 09:21:40;;;;;;;;;;;;;;;13.22;49.72;101088.97;4932123;28;98169;-70
2023/12/19 09:24:06;;;;;;;;;;;;;;;13.25;49.47;101091.16;4899139;28;122887;-70
2023/12/19 09:26:33;;;;;;;;;;;;;;;13.25;49.48;101096.56;4931922;28;99735;-66
2023/12/19 09:28:59;;;;;;;;;;;;;;;13.27;49.68;101072.75;4906198;28;99824;-66
2023/12/19 09:31:25;;;;;;;;;;;;;;;13.30;49.81;101067.88;4879625;28;99057;-70
2023/12/19 09:33:51;;;;;;;;;;;;;;;13.33;49.49;101064.63;4878824;28;108230;-70
2023/12/19 09:36:24;;;;;;;;;;;;;;;13.35;49.42;101051.63;4935749;28;126995;-66
2023/12/19 09:38:50;;;;;;;;;;;;;;;13.36;49.41;101055.94;4884319;28;98286;-70
2023/12/19 09:41:17;;;;;;;;;;;;;;;13.36;49.53;101047.81;4931896;28;119644;-66
2023/12/19 09:43:43;;;;;;;;;;;;;;;13.36;49.33;101043.25;4914635;28;98331;-70
2023/12/19 09:46:10;;;;;;;;;;;;;;;13.36;49.58;101035.13;4908677;28;99457;-70
2023/12/19 09:48:36;;;;;;;;;;;;;;;13.36;49.50;101037.00;4910220;28;100814;-69
2023/12/19 09:51:03;;;;;;;;;;;;;;;13.36;49.31;101024.28;4932683;28;98641;-66
2023/12/19 09:53:34;;;;;;;;;;;;;;;13.36;49.39;101024.28;4899855;28;114087;-70
2023/12/19 09:56:00;;;;;;;;;;;;;;;13.36;49.83;101024.28;4928831;28;98420;-66
2023/12/19 09:58:28;;;;;;;;;;;;;;;13.35;49.87;101019.94;4934497;28;99904;-70
2023/12/19 10:00:57;;;;;;;;;;;;;;;13.34;49.48;101026.44;4928828;28;99722;-70
2023/12/19 10:03:23;;;;;;;;;;;;;;;13.35;49.42;101024.56;4913756;28;113498;-69
2023/12/19 10:05:49;;;;;;;;;;;;;;;13.36;49.84;101004.50;4940964;28;127595;-66
2023/12/19 10:08:15;;;;;;;;;;;;;;;13.37;49.42;100998.03;4919369;28;98738;-66
2023/12/19 10:10:53;;;;;;;;;;;;;;;13.37;49.46;100993.41;4874500;28;129400;-69
2023/12/19 10:13:32;;;;;;;;;;;;;;;13.40;49.82;100987.47;4947986;28;98096;-66
2023/12/19 10:16:08;;;;;;;;;;;;;;;13.46;49.26;100980.13;4947240;28;98068;-69
2023/12/19 10:18:34;;;;;;;;;;;;;;;13.49;49.51;100972.28;4931372;28;98303;-66
2023/12/19 10:21:08;;;;;;;;;;;;;;;13.54;49.18;100974.16;4922682;28;104343;-69
2023/12/19 10:23:34;;;;;;;;;;;;;;;13.59;49.59;100963.28;4949495;28;98302;-69
2023/12/19 10:26:00;;;;;;;;;;;;;;;13.65;49.17;100953.28;4902299;28;103818;-66
2023/12/19 10:28:26;;;;;;;;;;;;;;;13.71;49.54;100955.66;4937550;28;98515;-66
2023/12/19 10:31:12;;;;;;;;;;;;;;;13.80;49.36;100952.41;4928582;28;98431;-69
2023/12/19 10:33:46;;;;;;;;;;;;;;;13.89;49.17;100954.25;4933244;28;99609;-66
2023/12/19 10:36:31;;;;;;;;;;;;;;;13.96;48.88;100949.34;4919366;28;98685;-69
2023/12/19 10:39:01;;;;;;;;;;;;;;;14.03;49.14;100932.81;4907504;28;98032;-63
2023/12/19 10:41:28;;;;;;;;;;;;;;;14.12;49.24;100925.69;4922319;28;98451;-66
2023/12/19 10:43:58;;;;;;;;;;;;;;;14.21;49.04;100924.00;4901748;28;98225;-66
2023/12/19 10:46:31;;;;;;;;;;;;;;;14.29;48.91;100925.31;4908014;28;98196;-66
2023/12/19 10:49:01;;;;;;;;;;;;;;;14.35;48.90;100924.22;4917027;28;98012;-69
2023/12/19 10:51:34;;;;;;;;;;;;;;;14.31;48.81;100927.75;4924616;28;100153;-67
2023/12/19 10:54:08;;;;;;;;;;;;;;;14.30;49.06;100924.22;4950750;28;98227;-69
2023/12/19 10:56:54;;;;;;;;;;;;;;;14.35;49.34;100912.56;4935481;28;98591;-69
2023/12/19 10:59:29;;;;;;;;;;;;;;;14.41;48.84;100901.38;4919517;28;99136;-70
2023/12/19 11:02:02;;;;;;;;;;;;;;;14.54;48.81;100905.41;4932336;28;99768;-69
2023/12/19 11:04:29;;;;;;;;;;;;;;;14.52;49.10;100910.28;4905830;28;98405;-69
2023/12/19 11:06:56;;;;;;;;;;;;;;;14.52;49.14;100910.28;4938533;28;98972;-69
2023/12/19 11:09:25;;;;;;;;;;;;;;;14.49;48.97;100892.66;4950167;28;98429;-66
2023/12/19 11:11:50;;;;;;;;;;;;;;;14.49;49.06;100881.00;4921791;28;98349;-66
2023/12/19 11:14:18;;;;;;;;;;;;;;;14.47;49.17;100869.59;4920373;28;98353;-66
2023/12/19 11:16:54;;;;;;;;;;;;;;;14.49;49.15;100865.53;4919557;28;98279;-70
2023/12/19 11:19:30;;;;;;;;;;;;;;;14.55;48.99;100846.53;4934063;28;116033;-69
2023/12/19 11:22:14;;;;;;;;;;;;;;;14.58;49.22;100854.91;4921741;28;99857;-69
2023/12/19 11:24:53;;;;;;;;;;;;;;;14.57;49.31;100855.16;4928570;28;98282;-69
2023/12/19 11:27:25;;;;;;;;;;;;;;;14.54;49.35;100858.44;4921394;28;99002;-66
2023/12/19 11:29:53;;;;;;;;;;;;;;;14.55;49.36;100841.91;4933772;28;99074;-66
2023/12/19 11:32:28;;;;;;;;;;;;;;;14.60;49.02;100841.03;4919144;28;98235;-66
2023/12/19 11:35:15;;;;;;;;;;;;;;;14.61;49.34;100829.91;4947855;28;98627;-69
2023/12/19 11:37:43;;;;;;;;;;;;;;;14.64;49.06;100815.78;4911381;28;98401;-69
2023/12/19 11:40:18;;;;;;;;;;;;;;;14.65;49.04;100803.81;4938651;28;98198;-69
2023/12/19 11:42:45;;;;;;;;;;;;;;;14.65;48.97;100800.28;4953097;28;98073;-69
2023/12/19 11:45:17;;;;;;;;;;;;;;;14.62;49.03;100784.59;4923302;28;98270;-69
2023/12/19 11:47:44;;;;;;;;;;;;;;;14.57;49.09;100787.34;4926265;28;99119;-69
2023/12/19 11:50:15;;;;;;;;;;;;;;;14.51;49.51;100783.09;4936294;28;98184;-66
2023/12/19 11:52:42;;;;;;;;;;;;;;;14.44;49.36;100784.19;4917832;28;99683;-66
2023/12/19 11:55:08;;;;;;;;;;;;;;;14.39;49.12;100799.72;4921449;28;98142;-66
2023/12/19 11:57:34;;;;;;;;;;;;;;;14.32;49.66;100797.31;4929949;28;123879;-69
2023/12/19 12:00:00;;;;;;;;;;;;;;;14.27;49.40;100813.63;4948610;28;98158;-66
2023/12/19 12:02:31;;;;;;;;;;;;;;;14.23;49.48;100801.75;4933253;28;100697;-66
2023/12/19 12:05:12;;;;;;;;;;;;;;;14.18;49.46;100807.19;4921747;28;99503;-66
2023/12/19 12:07:47;;;;;;;;;;;;;;;14.13;49.79;100805.31;4922947;28;100116;-66
2023/12/19 12:10:23;;;;;;;;;;;;;;;14.10;49.38;100778.78;4921139;28;97924;-66
2023/12/19 12:12:50;;;;;;;;;;;;;;;14.08;49.51;100778.25;4921366;28;98225;-69
2023/12/19 12:15:20;;;;;;;;;;;;;;;14.05;49.69;100778.81;4903683;28;98599;-66
2023/12/19 12:17:47;;;;;;;;;;;;;;;14.01;49.40;100796.75;4901323;28;99260;-70
2023/12/19 12:20:14;;;;;;;;;;;;;;;13.98;49.60;100798.09;4903633;28;98118;-66
2023/12/19 12:22:40;;;;;;;;;;;;;;;13.94;49.47;100783.50;4879886;28;98140;-67
2023/12/19 12:25:07;;;;;;;;;;;;;;;13.92;49.43;100771.34;4919916;28;99872;-67
2023/12/19 12:27:33;;;;;;;;;;;;;;;13.89;49.76;100767.28;4900395;28;99371;-70
2023/12/19 12:30:00;;;;;;;;;;;;;;;13.88;49.73;100764.88;4918686;28;98686;-64
2023/12/19 12:32:26;;;;;;;;;;;;;;;13.86;49.40;100754.28;4917336;28;99629;-64
2023/12/19 12:34:52;;;;;;;;;;;;;;;13.88;49.78;100752.13;4930605;28;128340;-64